sensor_id;sensor_type;location;lat;lon;timestamp;P1;durP1;ratioP1;P2;durP2;ratioP2
18140;SDS011;9196;49.194;12.526;2023-06-22T00:02:01;12.40;;;8.43;;
18140;SDS011;9196;49.194;12.526;2023-06-22T00:04:28;10.50;;;6.40;;
18140;SDS011;9196;49.194;12.526;2023-06-22T00:06:55;10.90;;;7.10;;
18140;SDS011;9196;49.194;12.526;2023-06-22T00:09:22;11.60;;;6.77;;
18140;SDS011;9196;49.194;12.526;2023-06-22T00:11:48;10.53;;;7.90;;
18140;SDS011;9196;49.194;12.526;2023-06-22T00:14:15;12.87;;;9.00;;
18140;SDS011;9196;49.194;12.526;2023-06-22T00:16:42;14.87;;;10.03;;
18140;SDS011;9196;49.194;12.526;2023-06-22T00:19:10;13.30;;;9.10;;
18140;SDS011;9196;49.194;12.526;2023-06-22T00:21:37;14.63;;;9.77;;
18140;SDS011;9196;49.194;12.526;2023-06-22T00:24:04;24.33;;;11.33;;
18140;SDS011;9196;49.194;12.526;2023-06-22T00:26:32;19.83;;;10.50;;
18140;SDS011;9196;49.194;12.526;2023-06-22T00:28:58;24.40;;;11.20;;
18140;SDS011;9196;49.194;12.526;2023-06-22T00:31:25;13.30;;;9.80;;
18140;SDS011;9196;49.194;12.526;2023-06-22T00:33:52;15.43;;;11.10;;
18140;SDS011;9196;49.194;12.526;2023-06-22T00:36:20;18.60;;;10.03;;
18140;SDS011;9196;49.194;12.526;2023-06-22T00:38:49;14.70;;;10.47;;
18140;SDS011;9196;49.194;12.526;2023-06-22T00:41:16;13.40;;;9.60;;
18140;SDS011;9196;49.194;12.526;2023-06-22T00:43:45;15.20;;;8.97;;
18140;SDS011;9196;49.194;12.526;2023-06-22T00:46:11;22.27;;;9.70;;
18140;SDS011;9196;49.194;12.526;2023-06-22T00:48:38;14.17;;;8.83;;
18140;SDS011;9196;49.194;12.526;2023-06-22T00:51:06;28.17;;;10.50;;
18140;SDS011;9196;49.194;12.526;2023-06-22T00:53:35;24.93;;;10.70;;
18140;SDS011;9196;49.194;12.526;2023-06-22T00:56:03;17.70;;;11.00;;
18140;SDS011;9196;49.194;12.526;2023-06-22T00:58:31;21.67;;;10.70;;
18140;SDS011;9196;49.194;12.526;2023-06-22T01:00:58;21.10;;;10.00;;
18140;SDS011;9196;49.194;12.526;2023-06-22T01:03:25;17.13;;;9.57;;
18140;SDS011;9196;49.194;12.526;2023-06-22T01:05:52;21.07;;;8.77;;
18140;SDS011;9196;49.194;12.526;2023-06-22T01:08:29;16.70;;;9.67;;
18140;SDS011;9196;49.194;12.526;2023-06-22T01:11:01;20.07;;;10.33;;
18140;SDS011;9196;49.194;12.526;2023-06-22T01:13:44;20.30;;;10.07;;
18140;SDS011;9196;49.194;12.526;2023-06-22T01:16:17;15.90;;;11.50;;
18140;SDS011;9196;49.194;12.526;2023-06-22T01:18:46;25.87;;;11.53;;
18140;SDS011;9196;49.194;12.526;2023-06-22T01:21:18;81.17;;;13.73;;
18140;SDS011;9196;49.194;12.526;2023-06-22T01:23:51;32.77;;;11.67;;
18140;SDS011;9196;49.194;12.526;2023-06-22T01:26:33;15.93;;;10.30;;
18140;SDS011;9196;49.194;12.526;2023-06-22T01:29:05;15.50;;;9.87;;
18140;SDS011;9196;49.194;12.526;2023-06-22T01:31:34;22.93;;;11.73;;
18140;SDS011;9196;49.194;12.526;2023-06-22T01:34:02;14.13;;;10.23;;
18140;SDS011;9196;49.194;12.526;2023-06-22T01:36:31;15.37;;;9.53;;
18140;SDS011;9196;49.194;12.526;2023-06-22T01:38:59;12.40;;;9.77;;
18140;SDS011;9196;49.194;12.526;2023-06-22T01:41:27;13.80;;;10.67;;
18140;SDS011;9196;49.194;12.526;2023-06-22T01:43:55;12.03;;;8.53;;
18140;SDS011;9196;49.194;12.526;2023-06-22T01:46:24;9.57;;;8.20;;
18140;SDS011;9196;49.194;12.526;2023-06-22T01:48:51;8.70;;;7.63;;
18140;SDS011;9196;49.194;12.526;2023-06-22T01:51:19;13.30;;;7.90;;
18140;SDS011;9196;49.194;12.526;2023-06-22T01:53:46;9.07;;;7.20;;
18140;SDS011;9196;49.194;12.526;2023-06-22T01:56:13;10.77;;;7.67;;
18140;SDS011;9196;49.194;12.526;2023-06-22T01:58:45;9.30;;;6.50;;
18140;SDS011;9196;49.194;12.526;2023-06-22T02:01:15;9.40;;;7.93;;
18140;SDS011;9196;49.194;12.526;2023-06-22T02:03:49;8.80;;;6.73;;
18140;SDS011;9196;49.194;12.526;2023-06-22T02:06:20;7.87;;;7.17;;
18140;SDS011;9196;49.194;12.526;2023-06-22T02:08:51;9.63;;;7.60;;
18140;SDS011;9196;49.194;12.526;2023-06-22T02:11:23;7.90;;;7.20;;
18140;SDS011;9196;49.194;12.526;2023-06-22T02:13:52;8.90;;;8.00;;
18140;SDS011;9196;49.194;12.526;2023-06-22T02:16:19;7.57;;;6.97;;
18140;SDS011;9196;49.194;12.526;2023-06-22T02:18:48;10.80;;;7.80;;
18140;SDS011;9196;49.194;12.526;2023-06-22T02:21:16;9.27;;;6.60;;
18140;SDS011;9196;49.194;12.526;2023-06-22T02:23:43;16.97;;;7.70;;
18140;SDS011;9196;49.194;12.526;2023-06-22T02:26:10;9.43;;;7.40;;
18140;SDS011;9196;49.194;12.526;2023-06-22T02:28:37;8.13;;;7.37;;
18140;SDS011;9196;49.194;12.526;2023-06-22T02:31:04;9.50;;;8.47;;
18140;SDS011;9196;49.194;12.526;2023-06-22T02:33:31;9.40;;;7.70;;
18140;SDS011;9196;49.194;12.526;2023-06-22T02:35:59;13.10;;;9.00;;
18140;SDS011;9196;49.194;12.526;2023-06-22T02:38:30;19.00;;;9.10;;
18140;SDS011;9196;49.194;12.526;2023-06-22T02:40:59;34.87;;;9.57;;
18140;SDS011;9196;49.194;12.526;2023-06-22T02:43:26;24.77;;;8.80;;
18140;SDS011;9196;49.194;12.526;2023-06-22T02:45:53;22.67;;;8.97;;
18140;SDS011;9196;49.194;12.526;2023-06-22T02:48:20;11.60;;;7.90;;
18140;SDS011;9196;49.194;12.526;2023-06-22T02:50:46;9.30;;;8.17;;
18140;SDS011;9196;49.194;12.526;2023-06-22T02:53:15;8.30;;;7.50;;
18140;SDS011;9196;49.194;12.526;2023-06-22T02:55:41;9.53;;;8.53;;
18140;SDS011;9196;49.194;12.526;2023-06-22T02:58:08;8.87;;;8.07;;
18140;SDS011;9196;49.194;12.526;2023-06-22T03:00:35;20.27;;;8.60;;
18140;SDS011;9196;49.194;12.526;2023-06-22T03:03:01;15.73;;;9.80;;
18140;SDS011;9196;49.194;12.526;2023-06-22T03:05:28;10.73;;;8.67;;
18140;SDS011;9196;49.194;12.526;2023-06-22T03:07:55;11.53;;;7.40;;
18140;SDS011;9196;49.194;12.526;2023-06-22T03:10:24;9.20;;;8.17;;
18140;SDS011;9196;49.194;12.526;2023-06-22T03:12:51;8.70;;;7.90;;
18140;SDS011;9196;49.194;12.526;2023-06-22T03:15:17;8.50;;;7.57;;
18140;SDS011;9196;49.194;12.526;2023-06-22T03:17:44;13.50;;;9.13;;
18140;SDS011;9196;49.194;12.526;2023-06-22T03:20:12;9.33;;;8.27;;
18140;SDS011;9196;49.194;12.526;2023-06-22T03:22:39;8.83;;;7.83;;
18140;SDS011;9196;49.194;12.526;2023-06-22T03:25:07;12.87;;;8.50;;
18140;SDS011;9196;49.194;12.526;2023-06-22T03:27:39;11.07;;;7.80;;
18140;SDS011;9196;49.194;12.526;2023-06-22T03:30:07;10.30;;;8.73;;
18140;SDS011;9196;49.194;12.526;2023-06-22T03:32:35;8.77;;;7.87;;
18140;SDS011;9196;49.194;12.526;2023-06-22T03:35:02;9.33;;;6.70;;
18140;SDS011;9196;49.194;12.526;2023-06-22T03:37:29;12.13;;;8.43;;
18140;SDS011;9196;49.194;12.526;2023-06-22T03:39:55;10.73;;;8.87;;
18140;SDS011;9196;49.194;12.526;2023-06-22T03:42:22;8.70;;;7.80;;
18140;SDS011;9196;49.194;12.526;2023-06-22T03:44:50;17.50;;;9.33;;
18140;SDS011;9196;49.194;12.526;2023-06-22T03:47:17;8.97;;;8.10;;
18140;SDS011;9196;49.194;12.526;2023-06-22T03:49:44;13.23;;;9.83;;
18140;SDS011;9196;49.194;12.526;2023-06-22T03:52:11;12.60;;;8.30;;
18140;SDS011;9196;49.194;12.526;2023-06-22T03:54:38;8.93;;;7.87;;
18140;SDS011;9196;49.194;12.526;2023-06-22T03:57:05;10.70;;;9.63;;
18140;SDS011;9196;49.194;12.526;2023-06-22T03:59:32;120.43;;;11.60;;
18140;SDS011;9196;49.194;12.526;2023-06-22T04:02:00;10.27;;;9.17;;
18140;SDS011;9196;49.194;12.526;2023-06-22T04:04:27;9.43;;;8.50;;
18140;SDS011;9196;49.194;12.526;2023-06-22T04:06:54;10.63;;;8.50;;
18140;SDS011;9196;49.194;12.526;2023-06-22T04:09:20;8.77;;;7.97;;
18140;SDS011;9196;49.194;12.526;2023-06-22T04:11:47;41.80;;;9.13;;
18140;SDS011;9196;49.194;12.526;2023-06-22T04:14:14;9.73;;;8.77;;
18140;SDS011;9196;49.194;12.526;2023-06-22T04:16:41;10.80;;;9.30;;
18140;SDS011;9196;49.194;12.526;2023-06-22T04:19:09;10.03;;;8.93;;
18140;SDS011;9196;49.194;12.526;2023-06-22T04:21:41;8.40;;;7.70;;
18140;SDS011;9196;49.194;12.526;2023-06-22T04:24:08;12.87;;;7.83;;
18140;SDS011;9196;49.194;12.526;2023-06-22T04:26:35;9.40;;;7.53;;
18140;SDS011;9196;49.194;12.526;2023-06-22T04:29:02;9.10;;;8.20;;
18140;SDS011;9196;49.194;12.526;2023-06-22T04:31:30;9.03;;;7.73;;
18140;SDS011;9196;49.194;12.526;2023-06-22T04:34:01;9.70;;;7.97;;
18140;SDS011;9196;49.194;12.526;2023-06-22T04:36:33;11.93;;;8.13;;
18140;SDS011;9196;49.194;12.526;2023-06-22T04:39:03;14.07;;;9.47;;
18140;SDS011;9196;49.194;12.526;2023-06-22T04:41:31;9.10;;;6.87;;
18140;SDS011;9196;49.194;12.526;2023-06-22T04:44:07;14.10;;;9.20;;
18140;SDS011;9196;49.194;12.526;2023-06-22T04:46:34;9.17;;;8.33;;
18140;SDS011;9196;49.194;12.526;2023-06-22T04:49:03;10.47;;;8.83;;
18140;SDS011;9196;49.194;12.526;2023-06-22T04:51:31;9.80;;;7.90;;
18140;SDS011;9196;49.194;12.526;2023-06-22T04:53:59;8.80;;;7.70;;
18140;SDS011;9196;49.194;12.526;2023-06-22T04:56:26;8.40;;;7.53;;
18140;SDS011;9196;49.194;12.526;2023-06-22T04:58:54;15.20;;;8.73;;
18140;SDS011;9196;49.194;12.526;2023-06-22T05:01:22;18.20;;;9.40;;
18140;SDS011;9196;49.194;12.526;2023-06-22T05:03:48;15.27;;;9.07;;
18140;SDS011;9196;49.194;12.526;2023-06-22T05:06:15;11.47;;;9.40;;
18140;SDS011;9196;49.194;12.526;2023-06-22T05:08:42;11.40;;;8.53;;
18140;SDS011;9196;49.194;12.526;2023-06-22T05:11:11;8.93;;;8.07;;
18140;SDS011;9196;49.194;12.526;2023-06-22T05:13:37;12.13;;;8.13;;
18140;SDS011;9196;49.194;12.526;2023-06-22T05:16:04;13.40;;;8.93;;
18140;SDS011;9196;49.194;12.526;2023-06-22T05:18:31;11.03;;;8.03;;
18140;SDS011;9196;49.194;12.526;2023-06-22T05:20:58;9.53;;;8.57;;
18140;SDS011;9196;49.194;12.526;2023-06-22T05:23:24;11.73;;;9.63;;
18140;SDS011;9196;49.194;12.526;2023-06-22T05:25:51;11.90;;;10.50;;
18140;SDS011;9196;49.194;12.526;2023-06-22T05:28:21;9.90;;;9.00;;
18140;SDS011;9196;49.194;12.526;2023-06-22T05:30:48;8.53;;;7.57;;
18140;SDS011;9196;49.194;12.526;2023-06-22T05:33:14;10.97;;;9.87;;
18140;SDS011;9196;49.194;12.526;2023-06-22T05:35:41;12.37;;;11.00;;
18140;SDS011;9196;49.194;12.526;2023-06-22T05:38:08;12.87;;;11.50;;
18140;SDS011;9196;49.194;12.526;2023-06-22T05:40:35;13.47;;;10.60;;
18140;SDS011;9196;49.194;12.526;2023-06-22T05:43:02;15.03;;;11.03;;
18140;SDS011;9196;49.194;12.526;2023-06-22T05:45:30;13.17;;;10.20;;
18140;SDS011;9196;49.194;12.526;2023-06-22T05:47:57;12.70;;;11.37;;
18140;SDS011;9196;49.194;12.526;2023-06-22T05:50:24;12.77;;;10.27;;
18140;SDS011;9196;49.194;12.526;2023-06-22T05:52:50;15.03;;;11.93;;
18140;SDS011;9196;49.194;12.526;2023-06-22T05:55:17;14.53;;;11.13;;
18140;SDS011;9196;49.194;12.526;2023-06-22T05:57:44;13.60;;;11.50;;
18140;SDS011;9196;49.194;12.526;2023-06-22T06:00:11;11.27;;;10.20;;
18140;SDS011;9196;49.194;12.526;2023-06-22T06:02:41;12.23;;;8.87;;
18140;SDS011;9196;49.194;12.526;2023-06-22T06:05:09;9.20;;;8.23;;
18140;SDS011;9196;49.194;12.526;2023-06-22T06:07:36;10.13;;;8.50;;
18140;SDS011;9196;49.194;12.526;2023-06-22T06:10:03;10.93;;;8.47;;
18140;SDS011;9196;49.194;12.526;2023-06-22T06:12:31;12.27;;;9.03;;
18140;SDS011;9196;49.194;12.526;2023-06-22T06:14:58;10.47;;;9.37;;
18140;SDS011;9196;49.194;12.526;2023-06-22T06:17:24;9.57;;;8.57;;
18140;SDS011;9196;49.194;12.526;2023-06-22T06:19:53;10.70;;;7.50;;
18140;SDS011;9196;49.194;12.526;2023-06-22T06:22:19;11.17;;;9.57;;
18140;SDS011;9196;49.194;12.526;2023-06-22T06:24:48;19.47;;;9.17;;
18140;SDS011;9196;49.194;12.526;2023-06-22T06:27:16;9.43;;;8.20;;
18140;SDS011;9196;49.194;12.526;2023-06-22T06:29:44;11.00;;;9.13;;
18140;SDS011;9196;49.194;12.526;2023-06-22T06:32:13;12.70;;;9.13;;
18140;SDS011;9196;49.194;12.526;2023-06-22T06:34:40;10.80;;;8.50;;
18140;SDS011;9196;49.194;12.526;2023-06-22T06:37:09;11.03;;;9.10;;
18140;SDS011;9196;49.194;12.526;2023-06-22T06:39:36;12.50;;;8.90;;
18140;SDS011;9196;49.194;12.526;2023-06-22T06:42:03;10.03;;;8.93;;
18140;SDS011;9196;49.194;12.526;2023-06-22T06:44:31;13.17;;;8.67;;
18140;SDS011;9196;49.194;12.526;2023-06-22T06:46:57;13.00;;;8.37;;
18140;SDS011;9196;49.194;12.526;2023-06-22T06:49:24;11.23;;;9.40;;
18140;SDS011;9196;49.194;12.526;2023-06-22T06:51:51;10.50;;;8.83;;
18140;SDS011;9196;49.194;12.526;2023-06-22T06:54:19;14.23;;;8.00;;
18140;SDS011;9196;49.194;12.526;2023-06-22T06:56:46;11.17;;;9.07;;
18140;SDS011;9196;49.194;12.526;2023-06-22T06:59:13;12.87;;;8.67;;
18140;SDS011;9196;49.194;12.526;2023-06-22T07:01:40;9.33;;;7.23;;
18140;SDS011;9196;49.194;12.526;2023-06-22T07:04:07;9.80;;;8.80;;
18140;SDS011;9196;49.194;12.526;2023-06-22T07:06:33;9.60;;;8.60;;
18140;SDS011;9196;49.194;12.526;2023-06-22T07:09:00;8.60;;;7.80;;
18140;SDS011;9196;49.194;12.526;2023-06-22T07:11:29;9.83;;;8.83;;
18140;SDS011;9196;49.194;12.526;2023-06-22T07:13:56;12.10;;;8.63;;
18140;SDS011;9196;49.194;12.526;2023-06-22T07:16:23;9.23;;;8.33;;
18140;SDS011;9196;49.194;12.526;2023-06-22T07:18:52;12.10;;;7.80;;
18140;SDS011;9196;49.194;12.526;2023-06-22T07:21:19;10.03;;;8.50;;
18140;SDS011;9196;49.194;12.526;2023-06-22T07:23:46;8.77;;;7.87;;
18140;SDS011;9196;49.194;12.526;2023-06-22T07:26:13;10.93;;;8.30;;
18140;SDS011;9196;49.194;12.526;2023-06-22T07:28:42;10.00;;;9.00;;
18140;SDS011;9196;49.194;12.526;2023-06-22T07:31:09;22.40;;;9.30;;
18140;SDS011;9196;49.194;12.526;2023-06-22T07:33:36;13.10;;;8.37;;
18140;SDS011;9196;49.194;12.526;2023-06-22T07:36:02;10.17;;;9.17;;
18140;SDS011;9196;49.194;12.526;2023-06-22T07:38:32;11.57;;;8.73;;
18140;SDS011;9196;49.194;12.526;2023-06-22T07:41:00;12.43;;;9.70;;
18140;SDS011;9196;49.194;12.526;2023-06-22T07:43:27;9.83;;;8.17;;
18140;SDS011;9196;49.194;12.526;2023-06-22T07:45:56;9.20;;;8.30;;
18140;SDS011;9196;49.194;12.526;2023-06-22T07:48:23;11.00;;;8.10;;
18140;SDS011;9196;49.194;12.526;2023-06-22T07:50:50;11.03;;;8.40;;
18140;SDS011;9196;49.194;12.526;2023-06-22T07:53:18;10.97;;;8.63;;
18140;SDS011;9196;49.194;12.526;2023-06-22T07:55:46;9.70;;;8.23;;
18140;SDS011;9196;49.194;12.526;2023-06-22T07:58:13;9.13;;;8.20;;
18140;SDS011;9196;49.194;12.526;2023-06-22T08:00:40;13.60;;;8.57;;
18140;SDS011;9196;49.194;12.526;2023-06-22T08:03:08;8.90;;;7.70;;
18140;SDS011;9196;49.194;12.526;2023-06-22T08:05:35;19.00;;;8.70;;
18140;SDS011;9196;49.194;12.526;2023-06-22T08:08:02;8.40;;;7.60;;
18140;SDS011;9196;49.194;12.526;2023-06-22T08:10:29;10.73;;;8.30;;
18140;SDS011;9196;49.194;12.526;2023-06-22T08:12:56;12.80;;;7.70;;
18140;SDS011;9196;49.194;12.526;2023-06-22T08:15:23;13.67;;;8.83;;
18140;SDS011;9196;49.194;12.526;2023-06-22T08:17:52;11.90;;;9.13;;
18140;SDS011;9196;49.194;12.526;2023-06-22T08:20:20;9.77;;;8.70;;
18140;SDS011;9196;49.194;12.526;2023-06-22T08:22:47;10.70;;;8.23;;
18140;SDS011;9196;49.194;12.526;2023-06-22T08:25:14;10.80;;;7.37;;
18140;SDS011;9196;49.194;12.526;2023-06-22T08:27:40;9.60;;;7.80;;
18140;SDS011;9196;49.194;12.526;2023-06-22T08:30:11;9.40;;;7.60;;
18140;SDS011;9196;49.194;12.526;2023-06-22T08:32:38;15.70;;;8.30;;
18140;SDS011;9196;49.194;12.526;2023-06-22T08:35:05;14.10;;;8.57;;
18140;SDS011;9196;49.194;12.526;2023-06-22T08:37:35;9.60;;;7.93;;
18140;SDS011;9196;49.194;12.526;2023-06-22T08:40:04;11.90;;;7.10;;
18140;SDS011;9196;49.194;12.526;2023-06-22T08:42:33;8.10;;;6.97;;
18140;SDS011;9196;49.194;12.526;2023-06-22T08:45:00;9.63;;;7.20;;
18140;SDS011;9196;49.194;12.526;2023-06-22T08:47:28;13.63;;;7.70;;
18140;SDS011;9196;49.194;12.526;2023-06-22T08:49:55;11.40;;;7.40;;
18140;SDS011;9196;49.194;12.526;2023-06-22T08:52:22;8.90;;;7.57;;
18140;SDS011;9196;49.194;12.526;2023-06-22T08:54:51;9.40;;;6.40;;
18140;SDS011;9196;49.194;12.526;2023-06-22T08:57:18;9.47;;;5.80;;
18140;SDS011;9196;49.194;12.526;2023-06-22T08:59:45;11.33;;;6.73;;
18140;SDS011;9196;49.194;12.526;2023-06-22T09:02:12;10.57;;;8.20;;
18140;SDS011;9196;49.194;12.526;2023-06-22T09:04:39;11.03;;;8.10;;
18140;SDS011;9196;49.194;12.526;2023-06-22T09:07:06;12.37;;;8.47;;
18140;SDS011;9196;49.194;12.526;2023-06-22T09:09:33;8.37;;;7.57;;
18140;SDS011;9196;49.194;12.526;2023-06-22T09:12:01;17.37;;;7.10;;
18140;SDS011;9196;49.194;12.526;2023-06-22T09:14:28;7.83;;;6.97;;
18140;SDS011;9196;49.194;12.526;2023-06-22T09:16:55;9.77;;;7.33;;
18140;SDS011;9196;49.194;12.526;2023-06-22T09:19:21;8.10;;;7.30;;
18140;SDS011;9196;49.194;12.526;2023-06-22T09:21:48;8.40;;;6.40;;
18140;SDS011;9196;49.194;12.526;2023-06-22T09:24:16;10.97;;;7.10;;
18140;SDS011;9196;49.194;12.526;2023-06-22T09:26:42;7.47;;;6.20;;
18140;SDS011;9196;49.194;12.526;2023-06-22T09:29:10;10.93;;;6.03;;
18140;SDS011;9196;49.194;12.526;2023-06-22T09:31:37;11.33;;;7.60;;
18140;SDS011;9196;49.194;12.526;2023-06-22T09:34:04;14.23;;;6.10;;
18140;SDS011;9196;49.194;12.526;2023-06-22T09:36:31;10.90;;;7.40;;
18140;SDS011;9196;49.194;12.526;2023-06-22T09:38:58;12.43;;;8.03;;
18140;SDS011;9196;49.194;12.526;2023-06-22T09:41:30;11.00;;;7.30;;
18140;SDS011;9196;49.194;12.526;2023-06-22T09:43:57;15.43;;;6.97;;
18140;SDS011;9196;49.194;12.526;2023-06-22T09:46:25;10.20;;;6.63;;
18140;SDS011;9196;49.194;12.526;2023-06-22T09:48:53;9.33;;;7.60;;
18140;SDS011;9196;49.194;12.526;2023-06-22T09:51:19;10.33;;;8.10;;
18140;SDS011;9196;49.194;12.526;2023-06-22T09:53:48;9.10;;;6.90;;
18140;SDS011;9196;49.194;12.526;2023-06-22T09:56:15;7.47;;;6.77;;
18140;SDS011;9196;49.194;12.526;2023-06-22T09:58:42;8.50;;;6.90;;
18140;SDS011;9196;49.194;12.526;2023-06-22T10:01:09;8.10;;;6.93;;
18140;SDS011;9196;49.194;12.526;2023-06-22T10:03:38;7.77;;;7.00;;
18140;SDS011;9196;49.194;12.526;2023-06-22T10:06:04;9.53;;;6.40;;
18140;SDS011;9196;49.194;12.526;2023-06-22T10:08:31;12.87;;;6.53;;
18140;SDS011;9196;49.194;12.526;2023-06-22T10:10:58;8.37;;;7.10;;
18140;SDS011;9196;49.194;12.526;2023-06-22T10:13:25;12.23;;;6.40;;
18140;SDS011;9196;49.194;12.526;2023-06-22T10:15:51;10.97;;;6.83;;
18140;SDS011;9196;49.194;12.526;2023-06-22T10:18:18;10.47;;;6.30;;
18140;SDS011;9196;49.194;12.526;2023-06-22T10:20:48;9.47;;;6.40;;
18140;SDS011;9196;49.194;12.526;2023-06-22T10:23:17;10.87;;;6.00;;
18140;SDS011;9196;49.194;12.526;2023-06-22T10:25:43;8.30;;;6.00;;
18140;SDS011;9196;49.194;12.526;2023-06-22T10:28:10;7.03;;;5.43;;
18140;SDS011;9196;49.194;12.526;2023-06-22T10:30:37;7.17;;;6.50;;
18140;SDS011;9196;49.194;12.526;2023-06-22T10:33:06;12.23;;;5.47;;
18140;SDS011;9196;49.194;12.526;2023-06-22T10:35:33;8.90;;;6.50;;
18140;SDS011;9196;49.194;12.526;2023-06-22T10:38:01;6.20;;;5.70;;
18140;SDS011;9196;49.194;12.526;2023-06-22T10:40:28;10.53;;;5.70;;
18140;SDS011;9196;49.194;12.526;2023-06-22T10:42:54;11.40;;;6.60;;
18140;SDS011;9196;49.194;12.526;2023-06-22T10:45:21;11.67;;;6.50;;
18140;SDS011;9196;49.194;12.526;2023-06-22T10:47:48;13.60;;;6.60;;
18140;SDS011;9196;49.194;12.526;2023-06-22T10:50:15;12.93;;;6.50;;
18140;SDS011;9196;49.194;12.526;2023-06-22T10:52:42;8.27;;;5.90;;
18140;SDS011;9196;49.194;12.526;2023-06-22T10:55:10;8.80;;;6.00;;
18140;SDS011;9196;49.194;12.526;2023-06-22T10:57:37;9.27;;;6.50;;
18140;SDS011;9196;49.194;12.526;2023-06-22T11:00:07;12.63;;;6.63;;
18140;SDS011;9196;49.194;12.526;2023-06-22T11:02:36;7.20;;;6.50;;
18140;SDS011;9196;49.194;12.526;2023-06-22T11:05:03;8.23;;;5.90;;
18140;SDS011;9196;49.194;12.526;2023-06-22T11:07:30;11.50;;;6.25;;
18140;SDS011;9196;49.194;12.526;2023-06-22T11:09:57;8.80;;;6.00;;
18140;SDS011;9196;49.194;12.526;2023-06-22T11:12:26;7.83;;;5.90;;
18140;SDS011;9196;49.194;12.526;2023-06-22T11:14:52;10.10;;;5.80;;
18140;SDS011;9196;49.194;12.526;2023-06-22T11:17:22;10.93;;;6.90;;
18140;SDS011;9196;49.194;12.526;2023-06-22T11:19:48;11.53;;;5.80;;
18140;SDS011;9196;49.194;12.526;2023-06-22T11:22:15;14.30;;;6.37;;
18140;SDS011;9196;49.194;12.526;2023-06-22T11:24:42;10.63;;;6.30;;
18140;SDS011;9196;49.194;12.526;2023-06-22T11:27:09;8.43;;;5.90;;
18140;SDS011;9196;49.194;12.526;2023-06-22T11:29:37;9.60;;;6.23;;
18140;SDS011;9196;49.194;12.526;2023-06-22T11:32:05;7.17;;;6.30;;
18140;SDS011;9196;49.194;12.526;2023-06-22T11:34:32;12.40;;;6.00;;
18140;SDS011;9196;49.194;12.526;2023-06-22T11:36:59;6.50;;;5.77;;
18140;SDS011;9196;49.194;12.526;2023-06-22T11:39:26;9.77;;;6.37;;
18140;SDS011;9196;49.194;12.526;2023-06-22T11:41:53;13.03;;;6.13;;
18140;SDS011;9196;49.194;12.526;2023-06-22T11:44:20;10.33;;;6.80;;
18140;SDS011;9196;49.194;12.526;2023-06-22T11:46:48;7.83;;;6.57;;
18140;SDS011;9196;49.194;12.526;2023-06-22T11:49:15;11.10;;;6.23;;
18140;SDS011;9196;49.194;12.526;2023-06-22T11:51:41;8.47;;;7.03;;
18140;SDS011;9196;49.194;12.526;2023-06-22T11:54:08;13.67;;;6.97;;
18140;SDS011;9196;49.194;12.526;2023-06-22T11:56:35;14.63;;;6.37;;
18140;SDS011;9196;49.194;12.526;2023-06-22T11:59:02;15.63;;;6.77;;
18140;SDS011;9196;49.194;12.526;2023-06-22T12:01:28;7.23;;;6.57;;
18140;SDS011;9196;49.194;12.526;2023-06-22T12:03:59;6.20;;;5.60;;
18140;SDS011;9196;49.194;12.526;2023-06-22T12:06:26;6.57;;;5.97;;
18140;SDS011;9196;49.194;12.526;2023-06-22T12:08:52;8.63;;;6.87;;
18140;SDS011;9196;49.194;12.526;2023-06-22T12:11:19;9.43;;;6.73;;
18140;SDS011;9196;49.194;12.526;2023-06-22T12:13:46;9.50;;;6.73;;
18140;SDS011;9196;49.194;12.526;2023-06-22T12:16:13;8.40;;;6.27;;
18140;SDS011;9196;49.194;12.526;2023-06-22T12:18:40;12.03;;;7.23;;
18140;SDS011;9196;49.194;12.526;2023-06-22T12:21:08;7.20;;;6.10;;
18140;SDS011;9196;49.194;12.526;2023-06-22T12:23:34;6.90;;;5.97;;
18140;SDS011;9196;49.194;12.526;2023-06-22T12:26:01;8.97;;;6.80;;
18140;SDS011;9196;49.194;12.526;2023-06-22T12:28:28;8.77;;;7.20;;
18140;SDS011;9196;49.194;12.526;2023-06-22T12:30:55;11.80;;;6.80;;
18140;SDS011;9196;49.194;12.526;2023-06-22T12:33:21;8.87;;;6.90;;
18140;SDS011;9196;49.194;12.526;2023-06-22T12:35:48;8.47;;;6.30;;
18140;SDS011;9196;49.194;12.526;2023-06-22T12:38:16;13.00;;;7.03;;
18140;SDS011;9196;49.194;12.526;2023-06-22T12:40:43;7.90;;;6.30;;
18140;SDS011;9196;49.194;12.526;2023-06-22T12:43:12;6.70;;;5.60;;
18140;SDS011;9196;49.194;12.526;2023-06-22T12:45:38;9.10;;;6.10;;
18140;SDS011;9196;49.194;12.526;2023-06-22T12:48:05;7.00;;;6.37;;
18140;SDS011;9196;49.194;12.526;2023-06-22T12:50:33;8.70;;;6.47;;
18140;SDS011;9196;49.194;12.526;2023-06-22T12:53:00;11.50;;;7.10;;
18140;SDS011;9196;49.194;12.526;2023-06-22T12:55:30;10.57;;;7.50;;
18140;SDS011;9196;49.194;12.526;2023-06-22T12:57:57;7.03;;;6.10;;
18140;SDS011;9196;49.194;12.526;2023-06-22T13:00:24;7.20;;;6.50;;
18140;SDS011;9196;49.194;12.526;2023-06-22T13:02:50;8.10;;;6.57;;
18140;SDS011;9196;49.194;12.526;2023-06-22T13:05:17;8.10;;;6.50;;
18140;SDS011;9196;49.194;12.526;2023-06-22T13:07:44;7.80;;;6.60;;
18140;SDS011;9196;49.194;12.526;2023-06-22T13:10:11;10.17;;;6.23;;
18140;SDS011;9196;49.194;12.526;2023-06-22T13:12:39;8.80;;;5.70;;
18140;SDS011;9196;49.194;12.526;2023-06-22T13:15:06;8.03;;;6.70;;
18140;SDS011;9196;49.194;12.526;2023-06-22T13:17:33;14.70;;;7.13;;
18140;SDS011;9196;49.194;12.526;2023-06-22T13:20:00;9.10;;;6.83;;
18140;SDS011;9196;49.194;12.526;2023-06-22T13:22:30;7.90;;;6.00;;
18140;SDS011;9196;49.194;12.526;2023-06-22T13:24:57;7.10;;;6.00;;
18140;SDS011;9196;49.194;12.526;2023-06-22T13:27:25;8.40;;;6.47;;
18140;SDS011;9196;49.194;12.526;2023-06-22T13:29:53;7.27;;;5.83;;
18140;SDS011;9196;49.194;12.526;2023-06-22T13:32:20;7.67;;;6.63;;
18140;SDS011;9196;49.194;12.526;2023-06-22T13:34:47;8.93;;;7.17;;
18140;SDS011;9196;49.194;12.526;2023-06-22T13:37:13;7.53;;;6.30;;
18140;SDS011;9196;49.194;12.526;2023-06-22T13:39:41;6.93;;;6.30;;
18140;SDS011;9196;49.194;12.526;2023-06-22T13:42:07;10.10;;;5.77;;
18140;SDS011;9196;49.194;12.526;2023-06-22T13:44:34;6.53;;;5.90;;
18140;SDS011;9196;49.194;12.526;2023-06-22T13:47:03;11.63;;;6.40;;
18140;SDS011;9196;49.194;12.526;2023-06-22T13:49:30;7.97;;;6.57;;
18140;SDS011;9196;49.194;12.526;2023-06-22T13:51:57;7.23;;;5.80;;
18140;SDS011;9196;49.194;12.526;2023-06-22T13:54:24;7.20;;;5.40;;
18140;SDS011;9196;49.194;12.526;2023-06-22T13:56:50;13.13;;;6.93;;
18140;SDS011;9196;49.194;12.526;2023-06-22T13:59:18;12.40;;;6.80;;
18140;SDS011;9196;49.194;12.526;2023-06-22T14:01:46;10.50;;;7.10;;
18140;SDS011;9196;49.194;12.526;2023-06-22T14:04:14;9.30;;;6.20;;
18140;SDS011;9196;49.194;12.526;2023-06-22T14:06:41;5.87;;;5.37;;
18140;SDS011;9196;49.194;12.526;2023-06-22T14:09:07;8.03;;;5.63;;
18140;SDS011;9196;49.194;12.526;2023-06-22T14:11:34;10.53;;;6.20;;
18140;SDS011;9196;49.194;12.526;2023-06-22T14:14:01;9.63;;;6.00;;
18140;SDS011;9196;49.194;12.526;2023-06-22T14:16:28;11.50;;;5.77;;
18140;SDS011;9196;49.194;12.526;2023-06-22T14:18:54;9.23;;;5.97;;
18140;SDS011;9196;49.194;12.526;2023-06-22T14:21:23;11.63;;;7.00;;
18140;SDS011;9196;49.194;12.526;2023-06-22T14:23:50;6.80;;;6.20;;
18140;SDS011;9196;49.194;12.526;2023-06-22T14:26:16;6.47;;;5.60;;
18140;SDS011;9196;49.194;12.526;2023-06-22T14:28:44;8.20;;;5.20;;
18140;SDS011;9196;49.194;12.526;2023-06-22T14:31:15;10.63;;;6.27;;
18140;SDS011;9196;49.194;12.526;2023-06-22T14:33:46;7.57;;;6.00;;
18140;SDS011;9196;49.194;12.526;2023-06-22T14:36:13;8.90;;;5.63;;
18140;SDS011;9196;49.194;12.526;2023-06-22T14:38:42;7.77;;;6.97;;
18140;SDS011;9196;49.194;12.526;2023-06-22T14:41:09;8.50;;;6.67;;